Time;durP1;ratioP1;P1;durP2;ratioP2;P2;SDS_P1;SDS_P2;PMS_P1;PMS_P2;Temp;Humidity;BMP_temperature;BMP_pressure;BME280_temperature;BME280_humidity;BME280_pressure;Samples;Min_cycle;Max_cycle;Signal;HPM_P1;HPM_P2
2022/09/26 00:01:25;;;;;;;2.33;2.13;;;18.70;79.50;;;;;;5055556;28;20679;-66
2022/09/26 00:03:56;;;;;;;1.90;1.80;;;18.70;79.50;;;;;;5072094;28;20182;-66
2022/09/26 00:06:23;;;;;;;1.92;1.83;;;18.70;79.50;;;;;;5055453;28;20205;-66
2022/09/26 00:08:50;;;;;;;2.17;2.00;;;18.70;79.50;;;;;;5071761;28;20192;-64
2022/09/26 00:11:22;;;;;;;1.90;1.80;;;18.70;79.40;;;;;;5055416;28;20173;-65
2022/09/26 00:13:53;;;;;;;2.33;2.03;;;18.70;79.30;;;;;;5055251;28;20275;-66
2022/09/26 00:16:20;;;;;;;2.33;2.13;;;18.70;79.30;;;;;;5071800;28;20205;-66
2022/09/26 00:18:51;;;;;;;1.92;1.83;;;18.60;79.20;;;;;;5071886;28;20182;-66
2022/09/26 00:21:18;;;;;;;2.58;2.38;;;18.60;79.20;;;;;;5071747;28;20185;-65
2022/09/26 00:23:45;;;;;;;2.40;2.20;;;18.60;79.20;;;;;;5072932;28;20181;-65
2022/09/26 00:26:13;;;;;;;2.60;2.40;;;18.70;79.30;;;;;;5055161;28;20217;-65
2022/09/26 00:28:39;;;;;;;2.05;1.95;;;18.60;79.20;;;;;;5072928;28;20185;-65
2022/09/26 00:31:17;;;;;;;2.20;2.00;;;18.60;79.20;;;;;;5071653;28;20178;-65
2022/09/26 00:33:43;;;;;;;1.90;1.80;;;18.60;79.20;;;;;;5071396;28;20292;-65
2022/09/26 00:36:10;;;;;;;2.38;2.17;;;18.60;79.20;;;;;;5071537;28;20198;-65
2022/09/26 00:38:36;;;;;;;2.13;2.00;;;18.60;79.10;;;;;;5054720;28;20181;-66
2022/09/26 00:41:03;;;;;;;2.25;2.15;;;18.60;79.20;;;;;;5070964;28;20177;-65
2022/09/26 00:43:36;;;;;;;1.90;1.80;;;18.60;79.10;;;;;;5071473;28;20204;-65
2022/09/26 00:46:41;;;;;;;2.05;1.95;;;18.60;79.10;;;;;;5071246;28;20217;-65
2022/09/26 00:49:42;;;;;;;2.30;2.10;;;18.60;79.00;;;;;;5012481;28;20209;-65
2022/09/26 00:52:17;;;;;;;2.55;2.35;;;18.60;79.00;;;;;;5071680;28;20239;-65
2022/09/26 00:54:47;;;;;;;2.03;1.83;;;18.60;79.00;;;;;;5071222;28;20267;-65
2022/09/26 00:57:22;;;;;;;2.45;2.25;;;18.60;79.00;;;;;;5071184;28;20251;-66
2022/09/26 00:59:54;;;;;;;1.98;1.88;;;18.60;79.00;;;;;;5072325;28;20252;-66
2022/09/26 01:02:23;;;;;;;1.95;1.85;;;18.60;79.00;;;;;;5071257;28;20260;-66
2022/09/26 01:04:49;;;;;;;2.15;1.70;;;18.60;79.00;;;;;;5054663;28;20280;-65
2022/09/26 01:07:21;;;;;;;2.00;1.90;;;18.60;78.90;;;;;;5071383;28;20205;-65
2022/09/26 01:09:48;;;;;;;1.85;1.75;;;18.60;78.90;;;;;;5070905;28;20190;-65
2022/09/26 01:12:15;;;;;;;2.30;2.20;;;18.60;78.90;;;;;;5071396;28;20186;-65
2022/09/26 01:14:43;;;;;;;2.45;2.25;;;18.60;78.90;;;;;;5071262;28;20706;-66
2022/09/26 01:17:10;;;;;;;2.00;1.90;;;18.60;78.90;;;;;;5070956;28;20335;-65
2022/09/26 01:20:00;;;;;;;1.80;1.70;;;18.70;79.00;;;;;;5072161;28;20166;-65
2022/09/26 01:22:47;;;;;;;2.00;1.83;;;18.60;78.90;;;;;;5054336;28;20257;-66
2022/09/26 01:25:50;;;;;;;1.90;1.80;;;18.60;78.80;;;;;;5071302;28;20181;-66
2022/09/26 01:28:34;;;;;;;1.90;1.80;;;18.60;78.80;;;;;;5071288;28;20632;-65
2022/09/26 01:31:06;;;;;;;1.98;1.88;;;18.60;78.80;;;;;;5070801;28;20184;-65
2022/09/26 01:33:51;;;;;;;2.30;2.10;;;18.60;78.70;;;;;;5054473;28;20305;-66
2022/09/26 01:37:22;;;;;;;1.90;1.80;;;18.60;78.70;;;;;;5054112;28;20215;-65
2022/09/26 01:40:00;;;;;;;2.10;1.90;;;18.60;78.70;;;;;;5033437;28;20198;-65
2022/09/26 01:42:53;;;;;;;1.88;1.77;;;18.60;78.70;;;;;;5070846;28;20221;-66
2022/09/26 01:45:36;;;;;;;1.85;1.75;;;18.60;78.60;;;;;;5050968;28;20182;-65
2022/09/26 01:51:12;;;;;;;1.85;1.70;;;18.60;78.70;;;;;;5049528;28;20260;-70
2022/09/26 01:54:00;;;;;;;1.73;1.60;;;18.60;78.60;;;;;;5037270;28;20209;-69
2022/09/26 01:56:31;;;;;;;1.77;1.67;;;18.60;78.50;;;;;;5054585;28;20198;-69
2022/09/26 01:59:06;;;;;;;1.77;1.67;;;18.60;78.50;;;;;;5071376;28;20171;-70
2022/09/26 02:01:41;;;;;;;1.88;1.77;;;18.60;78.50;;;;;;5071419;28;20592;-70
2022/09/26 02:04:16;;;;;;;1.80;1.70;;;18.60;78.50;;;;;;5054529;28;20185;-70
2022/09/26 02:06:54;;;;;;;1.83;1.60;;;18.60;78.50;;;;;;5054596;28;20197;-69
2022/09/26 02:09:37;;;;;;;1.80;1.70;;;18.60;78.50;;;;;;5070854;28;20182;-69
2022/09/26 02:12:08;;;;;;;1.70;1.60;;;18.60;78.50;;;;;;5071050;28;20194;-70
2022/09/26 02:14:39;;;;;;;2.53;1.77;;;18.60;78.50;;;;;;5054508;28;20225;-69
2022/09/26 02:17:14;;;;;;;1.58;1.48;;;18.60;78.50;;;;;;5054568;28;20202;-70
2022/09/26 02:20:29;;;;;;;1.48;1.38;;;18.60;78.50;;;;;;5054246;28;20231;-69
2022/09/26 02:22:59;;;;;;;2.03;1.70;;;18.60;78.50;;;;;;5054433;28;20175;-70
2022/09/26 02:25:27;;;;;;;1.90;1.80;;;18.60;78.40;;;;;;5054141;28;20174;-69
2022/09/26 02:27:53;;;;;;;1.98;1.73;;;18.60;78.40;;;;;;5054194;28;20289;-70
2022/09/26 02:30:21;;;;;;;1.60;1.50;;;18.60;78.40;;;;;;5053802;28;20179;-69
2022/09/26 02:32:47;;;;;;;1.75;1.65;;;18.60;78.40;;;;;;5054143;28;20186;-70
2022/09/26 02:38:01;;;;;;;1.90;1.80;;;18.60;78.30;;;;;;5069187;28;20293;-70
2022/09/26 02:40:56;;;;;;;1.35;1.25;;;18.60;78.30;;;;;;5021968;28;20230;-70
2022/09/26 02:43:59;;;;;;;1.55;1.45;;;18.60;78.30;;;;;;4994235;28;20282;-69
2022/09/26 02:47:05;;;;;;;1.70;1.60;;;18.60;78.30;;;;;;5017246;28;20206;-70
2022/09/26 02:50:08;;;;;;;1.83;1.73;;;18.60;78.30;;;;;;5033677;28;20194;-69
2022/09/26 02:53:26;;;;;;;1.70;1.60;;;18.60;78.20;;;;;;5017203;28;20179;-70
2022/09/26 02:56:25;;;;;;;1.58;1.48;;;18.60;78.20;;;;;;5033685;28;20191;-70
2022/09/26 02:59:25;;;;;;;1.73;1.55;;;18.50;78.00;;;;;;5017013;28;20270;-69
2022/09/26 03:02:04;;;;;;;1.80;1.70;;;18.60;78.10;;;;;;5017204;28;20240;-70
2022/09/26 03:04:52;;;;;;;1.70;1.60;;;18.60;78.10;;;;;;5033366;28;20167;-70
2022/09/26 03:07:32;;;;;;;1.83;1.73;;;18.50;78.00;;;;;;5017144;28;20211;-69
2022/09/26 03:10:00;;;;;;;1.95;1.85;;;18.50;78.00;;;;;;5016872;28;20193;-69
2022/09/26 03:12:30;;;;;;;1.63;1.52;;;18.50;78.00;;;;;;5016959;28;20197;-70
2022/09/26 03:15:00;;;;;;;1.60;1.50;;;18.50;78.00;;;;;;5033228;28;20207;-69
2022/09/26 03:17:27;;;;;;;1.60;1.50;;;18.50;77.90;;;;;;5017050;28;20370;-70
2022/09/26 03:20:17;;;;;;;1.45;1.35;;;18.50;77.90;;;;;;5033355;28;20213;-69
2022/09/26 03:22:44;;;;;;;1.60;1.50;;;18.50;77.90;;;;;;5033206;28;20203;-70
2022/09/26 03:25:15;;;;;;;1.60;1.50;;;18.50;77.90;;;;;;5033043;28;20218;-70
2022/09/26 03:27:50;;;;;;;1.42;1.33;;;18.50;77.80;;;;;;5017405;28;20213;-69
2022/09/26 03:30:18;;;;;;;1.92;1.52;;;18.60;78.00;;;;;;5033067;28;20199;-69
2022/09/26 03:32:56;;;;;;;1.80;1.55;;;18.50;77.90;;;;;;5032849;28;20191;-70
2022/09/26 03:35:24;;;;;;;1.63;1.52;;;18.50;77.80;;;;;;5033466;28;20237;-70
2022/09/26 03:37:50;;;;;;;1.80;1.70;;;18.50;77.80;;;;;;5016534;28;20679;-70
2022/09/26 03:40:16;;;;;;;1.40;1.30;;;18.50;77.80;;;;;;5032590;28;20171;-69
2022/09/26 03:42:56;;;;;;;1.63;1.45;;;18.50;77.80;;;;;;5033021;28;20210;-70
2022/09/26 03:45:22;;;;;;;1.80;1.70;;;18.50;77.80;;;;;;5016361;28;20385;-70
2022/09/26 03:47:57;;;;;;;1.75;1.65;;;18.50;77.80;;;;;;5017592;28;20666;-70
2022/09/26 03:50:24;;;;;;;1.85;1.60;;;18.50;77.70;;;;;;5015581;28;20197;-69
2022/09/26 03:52:51;;;;;;;1.65;1.55;;;18.50;77.70;;;;;;5032581;28;20179;-69
2022/09/26 03:55:17;;;;;;;1.88;1.77;;;18.50;77.70;;;;;;5032399;28;20215;-70
2022/09/26 03:57:44;;;;;;;1.65;1.55;;;18.50;77.70;;;;;;5032410;28;20210;-69
2022/09/26 04:00:19;;;;;;;1.50;1.40;;;18.50;77.70;;;;;;5032423;28;20310;-69
2022/09/26 04:02:46;;;;;;;1.65;1.55;;;18.60;77.70;;;;;;5015767;28;20736;-69
2022/09/26 04:05:24;;;;;;;1.23;1.17;;;18.50;77.60;;;;;;5017655;28;20175;-69
2022/09/26 04:07:50;;;;;;;1.58;1.48;;;18.50;77.60;;;;;;5032344;28;20341;-69
2022/09/26 04:10:16;;;;;;;1.88;1.77;;;18.50;77.60;;;;;;5032199;28;20237;-69
2022/09/26 04:12:43;;;;;;;2.00;1.90;;;18.50;77.60;;;;;;5032148;28;20187;-69
2022/09/26 04:15:10;;;;;;;1.70;1.60;;;18.50;77.60;;;;;;5031611;28;20207;-69
2022/09/26 04:17:36;;;;;;;2.33;1.30;;;18.50;77.50;;;;;;5031940;28;20210;-70
2022/09/26 04:20:03;;;;;;;1.90;1.80;;;18.50;77.60;;;;;;5031741;28;20257;-70
2022/09/26 04:22:30;;;;;;;1.60;1.50;;;18.50;77.50;;;;;;5028089;28;20259;-69
2022/09/26 04:24:56;;;;;;;1.70;1.60;;;18.50;77.50;;;;;;5052179;28;20190;-69
2022/09/26 04:27:27;;;;;;;1.77;1.67;;;18.50;77.50;;;;;;5068609;28;20210;-69
2022/09/26 04:29:55;;;;;;;1.63;1.45;;;18.50;77.50;;;;;;5051815;28;20189;-69
2022/09/26 04:32:32;;;;;;;1.80;1.45;;;18.50;77.50;;;;;;5051544;28;20190;-69
2022/09/26 04:35:24;;;;;;;1.60;1.50;;;18.50;77.40;;;;;;5052613;28;20249;-69
2022/09/26 04:37:50;;;;;;;1.58;1.48;;;18.50;77.40;;;;;;5051421;28;20252;-69
2022/09/26 04:40:16;;;;;;;1.55;1.45;;;18.50;77.40;;;;;;5051288;28;20182;-69
2022/09/26 04:42:54;;;;;;;1.65;1.52;;;18.50;77.40;;;;;;5051684;28;20178;-70
2022/09/26 04:45:20;;;;;;;1.60;1.50;;;18.50;77.30;;;;;;5068379;28;20269;-70
2022/09/26 04:47:45;;;;;;;1.88;1.77;;;18.50;77.30;;;;;;5051430;28;20206;-69
2022/09/26 04:50:40;;;;;;;1.67;1.58;;;18.50;77.30;;;;;;5051436;28;20197;-69
2022/09/26 04:53:08;;;;;;;2.40;1.70;;;18.50;77.30;;;;;;5051329;28;20240;-69
2022/09/26 04:55:46;;;;;;;1.70;1.60;;;18.50;77.20;;;;;;5051603;28;20178;-69
2022/09/26 04:58:15;;;;;;;1.60;1.50;;;18.50;77.20;;;;;;5051261;28;20202;-70
2022/09/26 05:00:46;;;;;;;1.50;1.40;;;18.50;77.20;;;;;;5067857;28;20175;-69
2022/09/26 05:03:15;;;;;;;1.63;1.35;;;18.50;77.20;;;;;;5051236;28;20182;-71
2022/09/26 05:05:46;;;;;;;1.70;1.60;;;18.50;77.20;;;;;;5051517;28;20236;-70
2022/09/26 05:08:15;;;;;;;1.27;1.20;;;18.50;77.20;;;;;;5051080;28;20224;-71
2022/09/26 05:10:42;;;;;;;1.55;1.45;;;18.50;77.20;;;;;;5051243;28;20182;-71
2022/09/26 05:13:09;;;;;;;2.22;1.60;;;18.50;77.20;;;;;;5051008;28;20236;-71
2022/09/26 05:15:38;;;;;;;1.50;1.40;;;18.50;77.20;;;;;;5051048;28;20183;-71
2022/09/26 05:18:07;;;;;;;1.50;1.40;;;18.50;77.20;;;;;;5067468;28;20244;-71
2022/09/26 05:20:36;;;;;;;1.65;1.55;;;18.50;77.20;;;;;;5067175;28;20190;-71
2022/09/26 05:23:06;;;;;;;1.70;1.60;;;18.50;77.20;;;;;;5067590;28;20178;-71
2022/09/26 05:28:26;;;;;;;1.70;1.60;;;18.50;77.20;;;;;;5070791;28;20209;-71
2022/09/26 05:30:53;;;;;;;1.70;1.60;;;18.50;77.20;;;;;;5070904;28;20174;-71
2022/09/26 05:33:20;;;;;;;1.38;1.30;;;18.40;77.10;;;;;;5064776;28;20211;-71
2022/09/26 05:35:53;;;;;;;1.60;1.42;;;18.40;77.10;;;;;;5018384;28;20190;-71
2022/09/26 05:38:19;;;;;;;1.60;1.50;;;18.40;77.10;;;;;;5018094;28;20199;-71
2022/09/26 05:40:57;;;;;;;1.92;1.80;;;18.50;77.20;;;;;;5034208;28;20179;-71
2022/09/26 05:43:32;;;;;;;1.70;1.60;;;18.50;77.20;;;;;;5018178;28;20183;-71
2022/09/26 05:46:04;;;;;;;1.67;1.52;;;18.50;77.20;;;;;;5034385;28;20202;-71
2022/09/26 05:48:38;;;;;;;2.13;1.92;;;18.50;77.20;;;;;;5018944;28;20205;-72
2022/09/26 05:51:14;;;;;;;2.08;1.77;;;18.40;77.10;;;;;;5025412;28;20179;-72
2022/09/26 05:53:45;;;;;;;1.73;1.48;;;18.40;77.10;;;;;;5070539;28;20206;-72
2022/09/26 05:56:15;;;;;;;2.00;1.80;;;18.50;77.20;;;;;;5070623;28;20185;-72
2022/09/26 05:59:07;;;;;;;2.50;1.80;;;18.40;77.10;;;;;;5031542;28;20278;-72
2022/09/26 06:01:33;;;;;;;1.63;1.52;;;18.40;77.00;;;;;;5070433;28;20194;-72
2022/09/26 06:04:09;;;;;;;2.55;1.65;;;18.40;77.10;;;;;;5069237;28;20187;-71
2022/09/26 06:06:50;;;;;;;1.75;1.55;;;18.50;77.20;;;;;;5054001;28;20213;-72
2022/09/26 06:09:16;;;;;;;1.77;1.67;;;18.40;77.10;;;;;;5053935;28;20202;-72
2022/09/26 06:12:04;;;;;;;2.22;1.70;;;18.40;77.10;;;;;;5053836;28;20217;-72
2022/09/26 06:14:30;;;;;;;1.75;1.50;;;18.40;77.10;;;;;;5070264;28;20242;-70
2022/09/26 06:16:56;;;;;;;1.40;1.30;;;18.40;77.00;;;;;;5035776;28;20202;-70
2022/09/26 06:19:22;;;;;;;1.58;1.48;;;18.40;77.10;;;;;;5068721;28;20203;-70
2022/09/26 06:21:49;;;;;;;1.60;1.50;;;18.40;76.90;;;;;;5037042;28;20178;-70
2022/09/26 06:24:15;;;;;;;1.63;1.52;;;18.40;77.00;;;;;;5053785;28;20284;-70
2022/09/26 06:26:42;;;;;;;1.70;1.60;;;18.40;77.10;;;;;;5070097;28;20232;-70
2022/09/26 06:29:09;;;;;;;1.70;1.60;;;18.40;77.00;;;;;;5037075;28;20198;-70
2022/09/26 06:31:39;;;;;;;1.60;1.50;;;18.40;77.00;;;;;;5066854;28;20252;-70
2022/09/26 06:34:14;;;;;;;1.40;1.30;;;18.40;76.90;;;;;;5069509;28;20214;-70
2022/09/26 06:36:49;;;;;;;1.48;1.38;;;18.40;76.90;;;;;;5053449;28;20225;-70
2022/09/26 06:39:14;;;;;;;2.45;1.40;;;18.40;76.90;;;;;;5036107;28;20569;-70
2022/09/26 06:41:44;;;;;;;1.50;1.40;;;18.40;76.80;;;;;;5052830;28;20178;-70
2022/09/26 06:44:42;;;;;;;1.60;1.50;;;18.40;76.80;;;;;;5009956;28;20204;-70
2022/09/26 06:47:29;;;;;;;3.08;1.52;;;18.40;76.80;;;;;;5052688;28;20639;-70
2022/09/26 06:50:15;;;;;;;1.42;1.33;;;18.40;76.80;;;;;;5051834;28;20267;-70
2022/09/26 06:52:44;;;;;;;1.75;1.60;;;18.40;76.80;;;;;;5036957;28;20204;-70
2022/09/26 06:55:12;;;;;;;1.42;1.33;;;18.40;76.70;;;;;;5036604;28;20259;-70
2022/09/26 06:57:41;;;;;;;1.30;1.20;;;18.40;76.70;;;;;;5053084;28;20293;-70
2022/09/26 07:00:14;;;;;;;1.55;1.45;;;18.40;76.70;;;;;;5036178;28;20183;-70
2022/09/26 07:02:59;;;;;;;1.35;1.25;;;18.40;76.70;;;;;;5052670;28;20205;-70
2022/09/26 07:05:42;;;;;;;1.40;1.30;;;18.40;76.70;;;;;;5038763;28;20174;-70
2022/09/26 07:08:09;;;;;;;1.55;1.45;;;18.40;76.70;;;;;;5052814;28;20271;-70
2022/09/26 07:10:35;;;;;;;2.70;1.60;;;18.40;76.70;;;;;;5069295;28;20232;-70
2022/09/26 07:13:09;;;;;;;1.50;1.35;;;18.40;76.60;;;;;;5037034;28;20262;-70
2022/09/26 07:15:36;;;;;;;1.50;1.40;;;18.40;76.70;;;;;;5035876;28;20178;-70
2022/09/26 07:18:21;;;;;;;2.58;1.42;;;18.40;76.70;;;;;;5052586;28;20198;-70
2022/09/26 07:21:22;;;;;;;2.78;1.23;;;18.40;76.70;;;;;;5035074;28;20193;-70
2022/09/26 07:24:03;;;;;;;1.55;1.45;;;18.40;76.70;;;;;;5053639;28;20182;-70
2022/09/26 07:26:30;;;;;;;1.65;1.33;;;18.40;76.90;;;;;;5069014;28;20224;-70
2022/09/26 07:28:56;;;;;;;2.47;1.55;;;18.40;76.60;;;;;;5052393;28;20640;-70
2022/09/26 07:31:24;;;;;;;1.55;1.45;;;18.40;76.60;;;;;;5035799;28;20260;-70
2022/09/26 07:34:12;;;;;;;2.35;1.60;;;18.40;76.60;;;;;;5052243;28;20210;-70
2022/09/26 07:36:39;;;;;;;1.50;1.40;;;18.40;76.50;;;;;;5035717;28;20208;-70
2022/09/26 07:39:05;;;;;;;1.70;1.50;;;18.40;76.50;;;;;;5035658;28;20217;-70
2022/09/26 07:41:31;;;;;;;1.30;1.20;;;18.40;76.50;;;;;;5064932;28;20175;-70
2022/09/26 07:43:58;;;;;;;1.40;1.20;;;18.40;76.50;;;;;;5065404;28;20236;-70
2022/09/26 07:52:01;;;;;;;1.73;1.58;;;18.40;76.40;;;;;;5044774;28;20186;-65
2022/09/26 07:54:50;;;;;;;1.50;1.40;;;18.40;76.40;;;;;;5053216;28;20255;-65
2022/09/26 07:57:34;;;;;;;1.60;1.40;;;18.40;76.40;;;;;;5053150;28;20298;-66
2022/09/26 08:00:32;;;;;;;1.48;1.38;;;18.40;76.30;;;;;;5040656;28;20189;-66
2022/09/26 08:03:05;;;;;;;1.38;1.27;;;18.40;76.30;;;;;;5068170;28;20201;-66
2022/09/26 08:05:36;;;;;;;1.25;1.15;;;18.50;76.30;;;;;;5053012;28;20273;-65
2022/09/26 08:08:03;;;;;;;1.27;1.17;;;18.50;76.30;;;;;;5051748;28;20234;-66
2022/09/26 08:10:47;;;;;;;1.65;1.17;;;18.50;76.30;;;;;;5066168;28;20173;-65
2022/09/26 08:13:32;;;;;;;1.17;1.08;;;18.50;76.20;;;;;;5065778;28;20708;-65
2022/09/26 08:16:07;;;;;;;1.88;1.30;;;18.50;76.20;;;;;;5053047;28;20209;-66
2022/09/26 08:18:38;;;;;;;1.50;1.40;;;18.50;76.10;;;;;;5052525;28;20198;-65
2022/09/26 08:21:05;;;;;;;1.00;1.00;;;18.50;76.00;;;;;;5051306;28;20190;-65
2022/09/26 08:23:33;;;;;;;1.45;1.20;;;18.50;75.90;;;;;;5063515;28;20189;-65
2022/09/26 08:26:22;;;;;;;1.50;1.40;;;18.60;75.90;;;;;;5045211;28;20198;-65
2022/09/26 08:28:50;;;;;;;1.17;1.08;;;18.60;75.70;;;;;;5047636;28;20187;-66
2022/09/26 08:31:17;;;;;;;1.75;1.30;;;18.60;75.60;;;;;;5047788;28;20403;-65
2022/09/26 08:33:43;;;;;;;1.42;1.23;;;18.60;75.50;;;;;;5047963;28;20215;-65
2022/09/26 08:36:12;;;;;;;1.65;1.10;;;18.70;75.50;;;;;;5031382;28;20175;-65
2022/09/26 08:39:03;;;;;;;1.23;1.20;;;18.70;75.40;;;;;;5026677;28;20214;-65
2022/09/26 08:42:28;;;;;;;2.35;1.20;;;18.70;75.40;;;;;;5031527;28;20674;-67
2022/09/26 08:48:52;;;;;;;1.73;1.33;;;18.70;75.50;;;;;;5031038;28;20239;-65
2022/09/26 08:51:35;;;;;;;1.67;1.30;;;18.70;75.40;;;;;;5014369;28;20199;-65
2022/09/26 08:54:16;;;;;;;2.10;1.33;;;18.70;75.40;;;;;;5047436;28;20606;-65
2022/09/26 08:56:49;;;;;;;1.70;1.25;;;18.70;75.30;;;;;;5030931;28;20206;-65
2022/09/26 08:59:42;;;;;;;1.27;1.17;;;18.70;75.20;;;;;;5047665;28;20190;-66
2022/09/26 09:02:36;;;;;;;2.38;1.23;;;18.70;75.20;;;;;;5046977;28;20190;-66
2022/09/26 09:05:22;;;;;;;1.70;1.10;;;18.80;75.40;;;;;;5047421;28;20202;-65
2022/09/26 09:07:54;;;;;;;1.20;1.10;;;18.70;75.20;;;;;;5047669;28;20194;-65
2022/09/26 09:10:38;;;;;;;1.80;1.20;;;18.70;75.10;;;;;;5030662;28;20182;-65
2022/09/26 09:13:41;;;;;;;1.42;1.30;;;18.70;75.00;;;;;;5025512;28;20597;-65
2022/09/26 09:17:03;;;;;;;1.15;1.02;;;18.70;75.00;;;;;;5031863;28;20245;-65
2022/09/26 09:20:02;;;;;;;1.30;1.10;;;18.70;75.00;;;;;;5044522;28;20194;-65
2022/09/26 09:23:17;;;;;;;1.58;1.10;;;18.70;74.90;;;;;;5044637;28;20179;-65
2022/09/26 09:26:00;;;;;;;1.35;1.15;;;18.70;74.90;;;;;;5042470;28;20199;-65
2022/09/26 09:28:57;;;;;;;2.05;1.38;;;18.70;74.90;;;;;;5047150;28;20215;-67
2022/09/26 09:31:30;;;;;;;1.35;1.25;;;18.80;75.00;;;;;;5014446;28;20191;-65
2022/09/26 09:34:38;;;;;;;1.23;1.13;;;18.80;75.20;;;;;;5047796;28;20210;-66
2022/09/26 09:37:39;;;;;;;1.50;1.40;;;18.80;75.10;;;;;;5024429;28;20207;-65
2022/09/26 09:40:39;;;;;;;1.10;1.00;;;18.70;74.80;;;;;;5043171;28;20193;-66
2022/09/26 09:43:30;;;;;;;0.98;0.93;;;18.70;74.60;;;;;;5047553;28;20191;-65
2022/09/26 09:46:28;;;;;;;1.98;1.13;;;18.70;73.90;;;;;;5031059;28;20553;-66
2022/09/26 09:49:16;;;;;;;2.00;1.00;;;18.70;74.50;;;;;;5047808;28;20191;-66
2022/09/26 09:51:51;;;;;;;1.38;1.20;;;18.70;74.50;;;;;;5030853;28;20207;-66
2022/09/26 09:54:27;;;;;;;1.65;1.30;;;18.70;74.40;;;;;;5032751;28;20217;-65
2022/09/26 09:57:24;;;;;;;1.25;1.15;;;18.70;74.20;;;;;;5067658;28;20202;-66
2022/09/26 10:00:14;;;;;;;1.42;1.20;;;18.70;74.00;;;;;;5050516;28;20705;-65
2022/09/26 10:03:25;;;;;;;1.30;1.20;;;18.70;74.00;;;;;;5050475;28;20228;-66
2022/09/26 10:06:00;;;;;;;0.90;0.90;;;18.80;74.20;;;;;;5050915;28;20561;-66
2022/09/26 10:08:39;;;;;;;1.42;1.08;;;18.80;73.80;;;;;;5034907;28;20249;-63
2022/09/26 10:11:22;;;;;;;1.10;0.90;;;18.80;73.60;;;;;;5050652;28;20199;-66
2022/09/26 10:14:18;;;;;;;1.30;1.20;;;18.80;73.30;;;;;;5050890;28;20201;-65
2022/09/26 10:17:09;;;;;;;1.58;1.02;;;18.80;73.10;;;;;;5011612;28;20226;-65
2022/09/26 10:20:01;;;;;;;1.38;1.02;;;18.70;73.20;;;;;;5033072;28;20237;-66
2022/09/26 10:22:36;;;;;;;1.58;1.13;;;18.80;72.90;;;;;;5034452;28;20197;-66
2022/09/26 10:25:15;;;;;;;1.10;1.00;;;18.80;72.80;;;;;;5018049;28;20190;-66
2022/09/26 10:27:55;;;;;;;1.30;1.00;;;18.80;72.70;;;;;;5034318;28;20585;-66
2022/09/26 10:30:30;;;;;;;1.73;1.00;;;18.70;72.20;;;;;;5034138;28;20179;-66
2022/09/26 10:33:03;;;;;;;1.40;1.13;;;18.80;72.40;;;;;;5039322;28;20206;-66
2022/09/26 10:35:50;;;;;;;1.10;1.00;;;18.70;72.80;;;;;;5033895;28;20191;-66
2022/09/26 10:38:28;;;;;;;1.27;1.17;;;18.70;72.50;;;;;;5050293;28;20750;-66
2022/09/26 10:41:24;;;;;;;2.13;1.00;;;18.70;72.40;;;;;;5031775;28;20335;-66
2022/09/26 10:43:55;;;;;;;1.10;1.00;;;18.80;72.40;;;;;;5018109;28;20187;-66
2022/09/26 10:46:45;;;;;;;1.42;0.90;;;18.80;72.30;;;;;;5033871;28;20218;-66
2022/09/26 10:50:26;;;;;;;2.20;1.17;;;18.80;72.60;;;;;;5021740;28;20262;-66
2022/09/26 10:53:10;;;;;;;1.13;1.02;;;18.80;72.60;;;;;;5035263;28;20681;-66
2022/09/26 10:55:59;;;;;;;1.55;1.13;;;18.80;72.50;;;;;;5050586;28;20204;-66
2022/09/26 10:58:28;;;;;;;1.75;1.00;;;18.80;72.10;;;;;;5021234;28;20207;-66
2022/09/26 11:00:59;;;;;;;1.75;1.45;;;18.80;71.90;;;;;;5057987;28;20208;-66
2022/09/26 11:03:58;;;;;;;1.00;0.95;;;18.80;72.00;;;;;;5050386;28;20179;-66
2022/09/26 11:06:33;;;;;;;2.80;1.15;;;18.80;72.00;;;;;;5032815;28;20202;-64
2022/09/26 11:09:19;;;;;;;1.33;1.02;;;18.80;72.00;;;;;;5035538;28;20179;-66
2022/09/26 11:12:28;;;;;;;1.30;1.20;;;18.80;72.00;;;;;;5043013;28;20194;-66
2022/09/26 11:15:08;;;;;;;1.10;1.00;;;18.80;71.90;;;;;;5035926;28;20207;-66
2022/09/26 11:17:51;;;;;;;1.13;0.95;;;18.80;71.90;;;;;;5023854;28;20196;-65
2022/09/26 11:20:55;;;;;;;1.13;1.10;;;18.80;72.20;;;;;;5032868;28;20172;-65
2022/09/26 11:24:05;;;;;;;0.93;0.90;;;18.80;72.30;;;;;;5044184;28;20189;-66
2022/09/26 11:26:55;;;;;;;1.67;1.08;;;18.80;71.70;;;;;;4975958;28;20197;-66
2022/09/26 11:29:40;;;;;;;1.65;1.30;;;18.80;71.60;;;;;;5031152;28;20195;-66
2022/09/26 11:32:17;;;;;;;1.60;1.13;;;18.80;72.20;;;;;;5045264;28;20685;-66
2022/09/26 11:34:45;;;;;;;1.48;1.10;;;18.80;72.00;;;;;;5034157;28;20302;-66
2022/09/26 11:37:29;;;;;;;1.33;1.10;;;18.80;71.80;;;;;;5052484;28;20237;-65
2022/09/26 11:40:26;;;;;;;1.05;0.98;;;18.80;71.90;;;;;;5035400;28;20190;-65
2022/09/26 11:43:24;;;;;;;1.10;1.10;;;18.80;71.60;;;;;;5040610;28;20182;-65
2022/09/26 11:46:46;;;;;;;1.60;1.10;;;18.80;72.20;;;;;;5044533;28;20186;-66
2022/09/26 11:49:58;;;;;;;0.90;0.90;;;18.80;72.10;;;;;;5029714;28;20549;-66
2022/09/26 11:52:40;;;;;;;2.50;1.40;;;18.80;71.60;;;;;;5013729;28;20202;-67
2022/09/26 11:55:29;;;;;;;2.45;1.08;;;18.80;71.90;;;;;;5029723;28;20207;-66
2022/09/26 11:58:37;;;;;;;2.03;1.10;;;18.80;72.10;;;;;;5013736;28;20217;-67
2022/09/26 12:01:19;;;;;;;1.20;1.10;;;18.80;71.70;;;;;;5029197;28;20187;-66
2022/09/26 12:04:20;;;;;;;1.20;0.93;;;18.80;71.70;;;;;;5013041;28;20194;-66
2022/09/26 12:07:18;;;;;;;0.80;0.80;;;18.80;72.10;;;;;;5029423;28;20210;-65
2022/09/26 12:10:25;;;;;;;1.05;1.00;;;18.80;71.70;;;;;;5029036;28;20176;-66
2022/09/26 12:13:28;;;;;;;1.20;1.00;;;18.80;71.80;;;;;;5012472;28;20670;-66
2022/09/26 12:16:17;;;;;;;1.67;1.10;;;18.80;71.60;;;;;;5012664;28;20237;-66
2022/09/26 12:19:09;;;;;;;0.80;0.80;;;18.80;71.60;;;;;;5012460;28;20268;-66
2022/09/26 12:25:06;;;;;;;0.93;0.90;;;18.80;71.60;;;;;;5052279;28;20214;-65
2022/09/26 12:28:16;;;;;;;1.20;1.10;;;18.80;71.60;;;;;;5032363;28;20329;-67
2022/09/26 12:31:10;;;;;;;2.67;1.00;;;18.80;71.70;;;;;;5028186;28;20210;-66
2022/09/26 12:33:47;;;;;;;0.95;0.80;;;18.80;71.70;;;;;;5063095;28;20198;-66
2022/09/26 12:36:57;;;;;;;2.38;1.10;;;18.80;71.20;;;;;;5048470;28;20178;-65
2022/09/26 12:39:48;;;;;;;1.15;0.90;;;18.80;71.10;;;;;;5048981;28;20240;-66
2022/09/26 12:42:48;;;;;;;0.93;0.93;;;18.80;71.30;;;;;;5047430;28;20185;-66
2022/09/26 12:45:45;;;;;;;2.13;0.90;;;18.80;71.60;;;;;;5048597;28;20182;-65
2022/09/26 12:48:36;;;;;;;0.90;0.90;;;18.80;71.30;;;;;;5031877;28;20222;-66
2022/09/26 12:51:43;;;;;;;0.82;0.70;;;18.80;71.60;;;;;;5032258;28;20573;-64
2022/09/26 12:54:27;;;;;;;1.33;0.98;;;18.80;71.40;;;;;;5048697;28;20629;-66
2022/09/26 12:57:29;;;;;;;0.93;0.90;;;18.80;71.00;;;;;;5032024;28;20213;-66
2022/09/26 13:00:17;;;;;;;1.63;0.90;;;18.80;70.60;;;;;;5031290;28;20646;-66
2022/09/26 13:03:20;;;;;;;0.90;0.90;;;18.80;70.70;;;;;;5030219;28;20193;-66
2022/09/26 13:06:06;;;;;;;0.85;0.85;;;18.80;71.50;;;;;;5047974;28;20212;-66
2022/09/26 13:09:01;;;;;;;0.90;0.82;;;18.80;71.10;;;;;;5047773;28;20248;-66
2022/09/26 13:12:05;;;;;;;0.75;0.70;;;18.80;70.70;;;;;;5049822;28;20270;-67
2022/09/26 13:15:20;;;;;;;2.20;0.90;;;18.80;71.00;;;;;;5032173;28;20231;-66
2022/09/26 13:17:59;;;;;;;0.70;0.70;;;18.80;71.10;;;;;;5019560;28;20215;-66
2022/09/26 13:20:35;;;;;;;0.77;0.75;;;18.80;71.20;;;;;;5032165;28;20623;-66
2022/09/26 13:23:18;;;;;;;1.00;0.80;;;18.80;71.40;;;;;;5030976;28;20225;-65
2022/09/26 13:25:51;;;;;;;1.00;0.80;;;18.80;70.70;;;;;;5014676;28;20244;-66
2022/09/26 13:28:32;;;;;;;0.80;0.80;;;18.80;71.10;;;;;;5047669;28;20238;-65
2022/09/26 13:31:29;;;;;;;1.50;0.90;;;18.90;71.20;;;;;;5030657;28;20190;-65
2022/09/26 13:34:05;;;;;;;1.15;0.90;;;18.80;71.10;;;;;;5031246;28;20215;-65
2022/09/26 13:36:34;;;;;;;0.70;0.70;;;18.80;70.80;;;;;;5040743;28;20189;-66
2022/09/26 13:39:28;;;;;;;1.48;0.82;;;18.80;70.70;;;;;;5052114;28;20179;-65
2022/09/26 13:42:01;;;;;;;0.80;0.80;;;18.80;70.90;;;;;;5050776;28;20167;-66
2022/09/26 13:44:36;;;;;;;0.88;0.80;;;18.80;70.80;;;;;;5051030;28;20186;-66
2022/09/26 13:50:02;;;;;;;1.02;0.88;;;18.80;71.60;;;;;;5049339;28;20257;-70
2022/09/26 13:52:51;;;;;;;1.23;0.90;;;18.80;71.10;;;;;;5050050;28;20190;-70
2022/09/26 13:55:20;;;;;;;0.98;0.88;;;18.80;71.60;;;;;;5032164;28;20297;-71
2022/09/26 13:58:05;;;;;;;2.72;0.90;;;18.80;71.20;;;;;;5041173;28;20206;-71
2022/09/26 14:00:34;;;;;;;3.10;0.88;;;18.80;71.60;;;;;;5054470;28;20710;-71
2022/09/26 14:03:12;;;;;;;1.75;0.90;;;18.80;71.10;;;;;;5056059;28;20193;-71
2022/09/26 14:05:41;;;;;;;1.67;0.90;;;18.80;71.10;;;;;;5055012;28;20201;-71
2022/09/26 14:11:48;;;;;;;1.60;0.93;;;18.80;71.70;;;;;;5055427;28;20186;-71
2022/09/26 14:14:17;;;;;;;1.23;0.70;;;18.80;71.30;;;;;;5054360;28;20256;-71
2022/09/26 14:16:51;;;;;;;0.80;0.80;;;18.80;71.00;;;;;;5054641;28;20198;-71
2022/09/26 14:19:45;;;;;;;0.98;0.57;;;18.80;71.00;;;;;;5054201;28;20686;-71
2022/09/26 14:22:17;;;;;;;0.90;0.90;;;18.80;71.60;;;;;;5037703;28;20187;-71